Time;durP1;ratioP1;P1;durP2;ratioP2;P2;SDS_P1;SDS_P2;PMS_P1;PMS_P2;Temp;Humidity;BMP_temperature;BMP_pressure;BME280_temperature;BME280_humidity;BME280_pressure;Samples;Min_cycle;Max_cycle;Signal;HPM_P1;HPM_P2
2022/10/27 00:01:57;;;;;;;52.78;29.88;;;358.70;2329.60;;;;;;5099058;28;20115;-78
2022/10/27 00:04:23;;;;;;;41.97;28.13;;;358.70;2329.60;;;;;;5071469;28;20020;-77
2022/10/27 00:06:49;;;;;;;53.33;30.80;;;358.80;2329.60;;;;;;5078583;28;20520;-86
2022/10/27 00:09:15;;;;;;;44.22;28.25;;;358.80;2329.60;;;;;;5076652;28;20017;-83
2022/10/27 00:11:40;;;;;;;49.15;26.90;;;358.80;2329.60;;;;;;5095480;28;20028;-77
2022/10/27 00:14:06;;;;;;;41.03;25.70;;;358.80;2329.60;;;;;;5074624;28;20024;-84
2022/10/27 00:16:32;;;;;;;45.25;28.75;;;358.80;2329.60;;;;;;5074724;28;20028;-77
2022/10/27 00:18:57;;;;;;;43.72;27.63;;;358.80;2329.60;;;;;;5071408;28;20024;-78
2022/10/27 00:21:23;;;;;;;41.60;25.88;;;358.80;2329.60;;;;;;5073390;28;20055;-78
2022/10/27 00:23:50;;;;;;;44.38;27.20;;;358.80;2329.60;;;;;;5079476;28;20023;-84
2022/10/27 00:26:18;;;;;;;46.05;27.10;;;358.90;2329.60;;;;;;5073080;28;20032;-84
2022/10/27 00:28:43;;;;;;;44.13;27.23;;;358.90;2329.60;;;;;;5081765;28;20021;-78
2022/10/27 00:31:16;;;;;;;41.22;26.20;;;359.00;2329.60;;;;;;5073208;28;20046;-78
2022/10/27 00:33:43;;;;;;;41.83;27.15;;;358.90;2329.60;;;;;;5072677;28;20036;-78
2022/10/27 00:36:15;;;;;;;45.42;27.33;;;358.90;2329.60;;;;;;5074489;28;20125;-82
2022/10/27 00:38:41;;;;;;;40.03;25.52;;;358.90;2329.60;;;;;;5071501;28;20016;-78
2022/10/27 00:41:21;;;;;;;40.78;25.73;;;358.90;2329.60;;;;;;5074214;28;20035;-84
2022/10/27 00:43:47;;;;;;;39.85;25.65;;;359.00;2329.60;;;;;;5092232;28;20039;-80
2022/10/27 00:46:29;;;;;;;40.75;26.55;;;359.00;2329.60;;;;;;5072710;28;20016;-78
2022/10/27 00:49:03;;;;;;;41.13;25.98;;;359.00;2329.60;;;;;;5083770;28;20025;-77
2022/10/27 00:51:29;;;;;;;41.17;25.77;;;359.00;2329.60;;;;;;5071377;28;20024;-77
2022/10/27 00:53:55;;;;;;;42.67;25.85;;;359.00;2329.60;;;;;;5094218;28;20469;-77
2022/10/27 00:56:22;;;;;;;47.78;26.88;;;358.80;2329.60;;;;;;5070713;28;20036;-77
2022/10/27 00:58:48;;;;;;;44.90;28.00;;;359.10;2329.60;;;;;;5071333;28;20021;-77
2022/10/27 01:01:14;;;;;;;42.60;26.67;;;359.00;2329.60;;;;;;5078757;28;20115;-83
2022/10/27 01:03:41;;;;;;;43.25;25.35;;;359.00;2329.60;;;;;;5076264;28;20036;-78
2022/10/27 01:06:08;;;;;;;41.42;25.33;;;359.10;2329.60;;;;;;5078369;28;20025;-85
2022/10/27 01:08:35;;;;;;;41.13;24.98;;;359.20;2329.60;;;;;;5073537;28;20023;-77
2022/10/27 01:11:01;;;;;;;45.22;26.98;;;359.20;2329.60;;;;;;5073685;28;20021;-77
2022/10/27 01:13:27;;;;;;;40.45;26.48;;;359.20;2329.60;;;;;;5077207;28;20043;-77
2022/10/27 01:16:08;;;;;;;44.70;24.90;;;359.20;2329.60;;;;;;5074908;28;20044;-79
2022/10/27 01:18:46;;;;;;;41.33;25.05;;;359.10;2329.60;;;;;;5071504;28;20012;-84
2022/10/27 01:21:18;;;;;;;41.30;25.58;;;359.00;2329.60;;;;;;5096362;28;20028;-78
2022/10/27 01:24:02;;;;;;;40.60;25.27;;;359.00;2329.60;;;;;;5079224;28;20816;-78
2022/10/27 01:26:46;;;;;;;39.28;24.20;;;359.00;2329.60;;;;;;5057085;28;20044;-84
2022/10/27 01:29:15;;;;;;;42.00;25.75;;;359.00;2329.60;;;;;;5059894;28;20017;-84
2022/10/27 01:31:50;;;;;;;42.15;25.98;;;359.00;2329.60;;;;;;5076404;28;20028;-77
2022/10/27 01:34:44;;;;;;;42.58;26.23;;;359.00;2329.60;;;;;;5091018;28;20029;-78
2022/10/27 01:37:20;;;;;;;44.50;26.13;;;359.00;2329.60;;;;;;5081374;28;20036;-77
2022/10/27 01:40:03;;;;;;;42.80;26.02;;;359.00;2329.60;;;;;;5073101;28;20050;-84
2022/10/27 01:42:44;;;;;;;46.45;27.77;;;359.00;2329.60;;;;;;5086702;28;20032;-79
2022/10/27 01:45:14;;;;;;;40.15;26.35;;;359.00;2329.60;;;;;;5079902;28;20024;-83
2022/10/27 01:47:40;;;;;;;53.20;29.00;;;359.00;2329.60;;;;;;5074416;28;20013;-78
2022/10/27 01:50:07;;;;;;;42.67;25.63;;;359.00;2329.60;;;;;;5078413;28;20044;-78
2022/10/27 01:52:42;;;;;;;49.78;27.98;;;359.10;2329.60;;;;;;5074199;28;20024;-84
2022/10/27 01:55:25;;;;;;;48.20;28.40;;;359.10;2329.60;;;;;;5078495;28;20063;-84
2022/10/27 01:58:05;;;;;;;44.72;27.23;;;359.20;2329.60;;;;;;5078418;28;20064;-77
2022/10/27 02:00:59;;;;;;;46.00;26.17;;;359.20;2329.60;;;;;;5078523;28;20345;-78
2022/10/27 02:03:41;;;;;;;49.00;26.73;;;359.10;2329.60;;;;;;5094288;28;20113;-82
2022/10/27 02:06:14;;;;;;;46.25;26.48;;;359.10;2329.60;;;;;;5072827;28;20021;-78
2022/10/27 02:09:09;;;;;;;45.65;27.00;;;359.10;2329.60;;;;;;5075062;28;20021;-77
2022/10/27 02:11:38;;;;;;;48.78;28.25;;;359.10;2329.60;;;;;;5029121;28;20035;-80
2022/10/27 02:14:05;;;;;;;49.83;28.52;;;359.20;2329.60;;;;;;5015349;28;20650;-82
2022/10/27 02:16:35;;;;;;;49.88;26.60;;;359.20;2329.60;;;;;;5031493;28;20095;-78
2022/10/27 02:19:06;;;;;;;45.05;27.17;;;359.20;2329.60;;;;;;5014949;28;20022;-78
2022/10/27 02:21:35;;;;;;;45.00;25.77;;;359.30;2329.60;;;;;;5015116;28;20029;-82
2022/10/27 02:24:01;;;;;;;44.80;27.83;;;384.00;2329.60;;;;;;5031390;28;20487;-77
2022/10/27 02:26:43;;;;;;;44.88;27.38;;;384.00;2329.60;;;;;;4999397;28;20060;-85
2022/10/27 02:29:21;;;;;;;50.35;28.25;;;384.00;2329.60;;;;;;5030189;28;20033;-79
2022/10/27 02:31:51;;;;;;;45.28;26.48;;;359.20;2329.60;;;;;;5001301;28;20172;-84
2022/10/27 02:34:17;;;;;;;58.95;27.23;;;359.20;2329.60;;;;;;5015584;28;20022;-78
2022/10/27 02:36:43;;;;;;;48.72;27.77;;;359.20;2329.60;;;;;;5014299;28;20491;-76
2022/10/27 02:39:09;;;;;;;46.83;27.05;;;359.20;2329.60;;;;;;5001448;28;20036;-77
2022/10/27 02:41:34;;;;;;;51.03;27.50;;;359.20;2329.60;;;;;;5027907;28;20037;-78
2022/10/27 02:44:00;;;;;;;43.28;26.95;;;359.20;2329.60;;;;;;5031109;28;20458;-78
2022/10/27 02:46:26;;;;;;;43.53;27.05;;;359.20;2329.60;;;;;;5030678;28;20027;-78
2022/10/27 02:48:52;;;;;;;52.83;27.15;;;359.10;2329.60;;;;;;5049545;28;20028;-79
2022/10/27 02:51:17;;;;;;;43.00;26.92;;;359.10;2329.60;;;;;;5073893;28;20029;-84
2022/10/27 02:53:43;;;;;;;43.60;27.02;;;359.10;2329.60;;;;;;5075708;28;20452;-77
2022/10/27 02:56:09;;;;;;;48.33;27.17;;;359.00;2329.60;;;;;;5072058;28;20040;-77
2022/10/27 02:58:35;;;;;;;43.05;25.50;;;359.00;2329.60;;;;;;5074108;28;20021;-77
2022/10/27 03:01:00;;;;;;;48.10;25.38;;;359.00;2329.60;;;;;;5075782;28;20021;-84
2022/10/27 03:03:26;;;;;;;43.22;25.67;;;359.00;2329.60;;;;;;5073890;28;20070;-85
2022/10/27 03:05:52;;;;;;;51.97;26.55;;;359.00;2329.60;;;;;;5077003;28;20033;-77
2022/10/27 03:08:18;;;;;;;46.30;25.67;;;359.00;2329.60;;;;;;5070880;28;20029;-77
2022/10/27 03:10:44;;;;;;;42.40;25.27;;;359.00;2329.60;;;;;;5071293;28;20111;-77
2022/10/27 03:13:10;;;;;;;46.70;27.88;;;358.90;2329.60;;;;;;5073712;28;20059;-78
2022/10/27 03:15:36;;;;;;;51.35;27.35;;;359.20;2329.60;;;;;;5073909;28;20040;-77
2022/10/27 03:18:02;;;;;;;39.78;23.70;;;359.00;2329.60;;;;;;5072166;28;20442;-77
2022/10/27 03:20:28;;;;;;;45.08;26.05;;;359.00;2329.60;;;;;;5072490;28;20013;-77
2022/10/27 03:22:53;;;;;;;44.47;25.25;;;358.90;2329.60;;;;;;5079946;28;20041;-77
2022/10/27 03:25:19;;;;;;;45.92;24.55;;;359.00;2329.60;;;;;;5076086;28;20444;-76
2022/10/27 03:27:45;;;;;;;45.10;26.33;;;358.90;2329.60;;;;;;5074749;28;20024;-77
2022/10/27 03:30:13;;;;;;;42.00;24.25;;;359.00;2329.60;;;;;;5073231;28;20036;-79
2022/10/27 03:32:40;;;;;;;38.65;24.40;;;359.00;2329.60;;;;;;5070578;28;20032;-78
2022/10/27 03:35:06;;;;;;;39.00;23.38;;;359.00;2329.60;;;;;;5073649;28;20028;-77
2022/10/27 03:37:31;;;;;;;43.92;25.02;;;359.00;2329.60;;;;;;5070731;28;20017;-77
2022/10/27 03:39:57;;;;;;;46.28;25.08;;;359.00;2329.60;;;;;;5073208;28;20035;-84
2022/10/27 03:42:23;;;;;;;39.40;24.23;;;359.00;2329.60;;;;;;5074628;28;20024;-77
2022/10/27 03:44:48;;;;;;;40.08;23.55;;;359.00;2329.60;;;;;;5077672;28;20107;-77
2022/10/27 03:47:14;;;;;;;42.20;24.40;;;359.00;2329.60;;;;;;5083235;28;20374;-78
2022/10/27 03:49:40;;;;;;;50.97;23.83;;;358.90;2329.60;;;;;;5074763;28;20141;-76
2022/10/27 03:52:06;;;;;;;44.58;24.17;;;358.90;2329.60;;;;;;5082760;28;20056;-83
2022/10/27 03:54:31;;;;;;;47.63;25.35;;;358.90;2329.60;;;;;;5070669;28;20491;-83
2022/10/27 03:56:57;;;;;;;46.65;25.98;;;359.00;2329.60;;;;;;5072748;28;20032;-78
2022/10/27 03:59:23;;;;;;;46.05;26.00;;;359.00;2329.60;;;;;;5077307;28;20052;-77
2022/10/27 04:01:49;;;;;;;50.85;26.80;;;359.00;2329.60;;;;;;5073157;28;20028;-78
2022/10/27 04:04:15;;;;;;;46.00;26.05;;;359.00;2329.60;;;;;;5075971;28;20469;-77
2022/10/27 04:06:41;;;;;;;53.85;28.02;;;359.10;2329.60;;;;;;5073064;28;20027;-77
2022/10/27 04:09:06;;;;;;;51.58;27.15;;;359.10;2329.60;;;;;;5074336;28;20025;-77
2022/10/27 04:11:32;;;;;;;48.95;26.20;;;359.10;2329.60;;;;;;5073323;28;20024;-77
2022/10/27 04:13:58;;;;;;;48.65;26.60;;;359.00;2329.60;;;;;;5073390;28;20032;-77
2022/10/27 04:16:24;;;;;;;49.35;25.70;;;359.10;2329.60;;;;;;5071287;28;20032;-77
2022/10/27 04:18:49;;;;;;;52.40;28.55;;;359.10;2329.60;;;;;;5070194;28;20533;-77
2022/10/27 04:21:15;;;;;;;46.88;25.55;;;359.20;2329.60;;;;;;5070448;28;20028;-77
2022/10/27 04:23:42;;;;;;;45.90;25.80;;;359.20;2329.60;;;;;;5075403;28;20385;-77
2022/10/27 04:26:08;;;;;;;53.22;28.25;;;359.30;2329.60;;;;;;5072769;28;20113;-77
2022/10/27 04:28:33;;;;;;;45.60;25.73;;;359.30;2329.60;;;;;;5080268;28;20071;-85
2022/10/27 04:30:59;;;;;;;42.83;25.88;;;384.00;2329.60;;;;;;5074018;28;20481;-77
2022/10/27 04:33:25;;;;;;;47.55;26.85;;;384.00;2329.60;;;;;;5078133;28;20016;-77
2022/10/27 04:35:51;;;;;;;46.95;26.88;;;384.00;2329.60;;;;;;5081272;28;20389;-78
2022/10/27 04:38:16;;;;;;;46.60;25.85;;;384.10;2329.60;;;;;;5073921;28;20021;-77
2022/10/27 04:40:42;;;;;;;45.80;26.05;;;384.10;2329.60;;;;;;5078906;28;20021;-78
2022/10/27 04:43:08;;;;;;;51.78;33.20;;;384.20;2329.60;;;;;;5075961;28;20016;-78
2022/10/27 04:45:34;;;;;;;54.10;29.98;;;384.20;2329.60;;;;;;5079688;28;20016;-78
2022/10/27 04:48:00;;;;;;;48.65;28.15;;;384.20;2329.60;;;;;;5082735;28;20081;-79
2022/10/27 04:50:26;;;;;;;45.75;29.00;;;384.20;2329.60;;;;;;5088916;28;20170;-78
2022/10/27 04:53:00;;;;;;;52.15;28.88;;;384.20;2329.60;;;;;;5086137;28;20413;-79
2022/10/27 04:55:27;;;;;;;49.30;29.15;;;384.20;2329.60;;;;;;5085855;28;20487;-79
2022/10/27 04:57:54;;;;;;;46.90;28.55;;;384.20;2329.60;;;;;;5087279;28;20027;-79
2022/10/27 05:00:21;;;;;;;45.58;27.65;;;384.30;2329.60;;;;;;5088401;28;20123;-79
2022/10/27 05:02:58;;;;;;;49.33;29.60;;;384.40;2329.60;;;;;;5086139;28;20354;-80
2022/10/27 05:05:25;;;;;;;50.78;28.33;;;384.30;2329.60;;;;;;5083084;28;20013;-79
2022/10/27 05:08:02;;;;;;;62.85;33.00;;;384.40;2329.60;;;;;;5094153;28;20042;-79
2022/10/27 05:10:29;;;;;;;52.70;27.52;;;384.40;2329.60;;;;;;5091406;28;20047;-79
2022/10/27 05:12:54;;;;;;;52.00;26.60;;;384.30;2329.60;;;;;;5082510;28;20139;-79
2022/10/27 05:15:20;;;;;;;45.00;28.30;;;384.30;2329.60;;;;;;5082092;28;20569;-79
2022/10/27 05:17:46;;;;;;;48.42;28.73;;;384.30;2329.60;;;;;;5093073;28;20020;-79
2022/10/27 05:20:12;;;;;;;49.17;28.55;;;384.20;2329.60;;;;;;5084714;28;20026;-79
2022/10/27 05:22:38;;;;;;;53.45;27.33;;;384.20;2329.60;;;;;;5079191;28;20020;-82
2022/10/27 05:25:06;;;;;;;48.90;29.05;;;384.20;1945.60;;;;;;5078288;28;20048;-77
2022/10/27 05:27:32;;;;;;;53.72;28.92;;;384.20;2329.60;;;;;;5072682;28;20050;-76
2022/10/27 05:29:58;;;;;;;49.40;28.40;;;384.20;2329.60;;;;;;5082114;28;20156;-85
2022/10/27 05:32:24;;;;;;;49.22;26.83;;;384.30;2329.60;;;;;;5083605;28;20520;-77
2022/10/27 05:34:50;;;;;;;50.67;28.10;;;384.30;2329.60;;;;;;5082458;28;20020;-79
2022/10/27 05:37:15;;;;;;;45.70;26.83;;;384.30;2329.60;;;;;;5094180;28;20074;-84
2022/10/27 05:39:41;;;;;;;44.85;27.70;;;384.30;2329.60;;;;;;5094098;28;20025;-80
2022/10/27 05:42:07;;;;;;;45.05;28.33;;;384.30;2329.60;;;;;;5095221;28;20537;-87
2022/10/27 05:44:33;;;;;;;52.58;29.77;;;384.40;2329.60;;;;;;5094477;28;20031;-82
2022/10/27 05:46:58;;;;;;;53.95;29.20;;;384.40;2329.60;;;;;;5085280;28;20432;-85
2022/10/27 05:49:24;;;;;;;46.70;28.05;;;384.40;2329.60;;;;;;5088334;28;20028;-76
2022/10/27 05:51:51;;;;;;;45.90;29.20;;;384.40;2329.60;;;;;;5087448;28;20438;-80
2022/10/27 05:54:17;;;;;;;57.67;33.80;;;384.50;2329.60;;;;;;5085849;28;20085;-79
2022/10/27 05:56:43;;;;;;;56.03;33.92;;;384.50;2329.60;;;;;;5090464;28;20161;-80
2022/10/27 05:59:10;;;;;;;54.45;32.30;;;384.90;2329.60;;;;;;5083075;28;20024;-78
2022/10/27 06:01:36;;;;;;;45.80;28.60;;;384.50;2329.60;;;;;;5080537;28;20073;-86
2022/10/27 06:04:02;;;;;;;45.75;27.00;;;384.60;2329.60;;;;;;5078741;28;20024;-88
2022/10/27 06:06:28;;;;;;;46.90;27.15;;;384.60;2329.60;;;;;;5081130;28;20020;-77
2022/10/27 06:08:53;;;;;;;53.17;30.10;;;384.60;2329.60;;;;;;5081024;28;20035;-84
2022/10/27 06:11:19;;;;;;;51.13;28.17;;;384.50;2329.60;;;;;;5093556;28;20032;-80
2022/10/27 06:13:49;;;;;;;47.33;30.30;;;384.40;2329.60;;;;;;5092776;28;20370;-86
2022/10/27 06:16:15;;;;;;;51.58;28.20;;;384.60;2329.60;;;;;;5093375;28;20093;-85
2022/10/27 06:18:41;;;;;;;45.92;27.08;;;384.60;2329.60;;;;;;5092769;28;20020;-81
2022/10/27 06:21:06;;;;;;;46.67;26.60;;;384.70;2329.60;;;;;;5081138;28;20478;-85
2022/10/27 06:23:32;;;;;;;43.65;26.77;;;384.70;2329.60;;;;;;5079812;28;20035;-82
2022/10/27 06:25:58;;;;;;;46.67;28.08;;;384.80;2329.60;;;;;;5079072;28;20048;-80
2022/10/27 06:28:24;;;;;;;50.05;28.02;;;384.80;2329.60;;;;;;5084677;28;20028;-78
2022/10/27 06:30:50;;;;;;;49.70;27.92;;;384.90;2329.60;;;;;;5093537;28;20482;-84
2022/10/27 06:33:15;;;;;;;48.33;27.52;;;384.90;2329.60;;;;;;5093305;28;20381;-79
2022/10/27 06:35:41;;;;;;;50.92;29.63;;;384.90;2329.60;;;;;;5093065;28;20039;-78
2022/10/27 06:38:08;;;;;;;56.28;30.08;;;384.90;2329.60;;;;;;5092651;28;20123;-79
2022/10/27 06:40:34;;;;;;;47.15;28.75;;;384.90;2329.60;;;;;;5092638;28;20020;-79
2022/10/27 06:42:59;;;;;;;54.40;28.85;;;384.90;2329.60;;;;;;5094014;28;20020;-78
2022/10/27 06:45:25;;;;;;;53.85;31.27;;;384.90;2329.60;;;;;;5092482;28;20020;-78
2022/10/27 06:47:56;;;;;;;58.03;31.98;;;384.90;2329.60;;;;;;5092186;28;20036;-78
2022/10/27 06:50:22;;;;;;;59.33;34.90;;;384.90;2329.60;;;;;;5092270;28;20047;-78
2022/10/27 06:52:50;;;;;;;55.00;34.58;;;384.90;2329.60;;;;;;5094063;28;20093;-77
2022/10/27 06:55:16;;;;;;;58.35;33.00;;;409.60;2355.20;;;;;;5092266;28;20036;-78
2022/10/27 06:57:42;;;;;;;55.05;32.00;;;409.60;2355.20;;;;;;5092322;28;20217;-77
2022/10/27 07:00:09;;;;;;;48.17;30.95;;;409.60;2355.20;;;;;;5092406;28;20798;-77
2022/10/27 07:02:36;;;;;;;46.60;29.27;;;409.60;2355.20;;;;;;5088828;28;20091;-76
2022/10/27 07:05:02;;;;;;;61.50;31.23;;;409.60;2355.20;;;;;;5073292;28;20024;-76
2022/10/27 07:07:28;;;;;;;51.15;29.00;;;409.70;2355.20;;;;;;5088411;28;20016;-78
2022/10/27 07:09:54;;;;;;;51.33;30.27;;;409.70;2355.20;;;;;;5084888;28;20512;-78
2022/10/27 07:12:19;;;;;;;50.50;30.17;;;409.70;2355.20;;;;;;5081168;28;20177;-76
2022/10/27 07:14:45;;;;;;;52.58;29.00;;;409.70;2355.20;;;;;;5098873;28;20026;-76
2022/10/27 07:17:11;;;;;;;48.28;29.98;;;409.70;2355.20;;;;;;5073578;28;20098;-79
2022/10/27 07:19:36;;;;;;;51.42;30.27;;;409.70;2355.20;;;;;;5074071;28;20029;-77
2022/10/27 07:22:02;;;;;;;54.50;28.80;;;409.70;2355.20;;;;;;5091093;28;20102;-78
2022/10/27 07:24:28;;;;;;;56.90;31.92;;;409.80;2355.20;;;;;;5092079;28;20039;-82
2022/10/27 07:26:54;;;;;;;51.88;31.90;;;409.80;2355.20;;;;;;5091725;28;20028;-83
2022/10/27 07:29:19;;;;;;;54.08;32.17;;;409.80;2355.20;;;;;;5091397;28;20036;-80
2022/10/27 07:31:46;;;;;;;51.70;30.52;;;409.90;2355.20;;;;;;5092072;28;20027;-77
2022/10/27 07:34:12;;;;;;;57.72;31.10;;;409.90;2355.20;;;;;;5081800;28;20028;-85
2022/10/27 07:36:38;;;;;;;49.30;29.90;;;410.00;2355.20;;;;;;5090282;28;20028;-83
2022/10/27 07:39:04;;;;;;;47.55;29.95;;;410.00;2355.20;;;;;;5093032;28;20020;-77
2022/10/27 07:41:30;;;;;;;51.03;30.33;;;410.00;2355.20;;;;;;5092064;28;20366;-83
2022/10/27 07:43:56;;;;;;;53.53;30.95;;;410.00;2355.20;;;;;;5091260;28;20469;-79
2022/10/27 07:46:21;;;;;;;47.45;30.60;;;410.00;2355.20;;;;;;5093325;28;20031;-79
2022/10/27 07:48:47;;;;;;;53.17;30.58;;;410.00;2355.20;;;;;;5091573;28;20020;-77
2022/10/27 07:51:13;;;;;;;55.70;33.40;;;410.10;2355.20;;;;;;5091731;28;20477;-81
2022/10/27 07:53:38;;;;;;;52.53;33.03;;;410.20;2355.20;;;;;;5078727;28;20522;-81
2022/10/27 07:56:04;;;;;;;55.30;31.20;;;410.20;2355.20;;;;;;5082387;28;20048;-78
2022/10/27 07:58:30;;;;;;;50.75;31.58;;;410.20;2355.20;;;;;;5086887;28;20052;-85
2022/10/27 08:00:56;;;;;;;49.65;30.52;;;410.20;2355.20;;;;;;5091449;28;20039;-82
2022/10/27 08:03:25;;;;;;;49.97;30.20;;;410.20;2355.20;;;;;;5091840;28;20107;-80
2022/10/27 08:05:51;;;;;;;49.17;31.25;;;410.20;2355.20;;;;;;5090999;28;20030;-80
2022/10/27 08:08:18;;;;;;;55.95;30.13;;;410.30;2355.20;;;;;;5078688;28;20040;-81
2022/10/27 08:10:48;;;;;;;46.97;28.40;;;435.20;2355.20;;;;;;5084303;28;20032;-78
2022/10/27 08:13:14;;;;;;;52.47;28.38;;;410.30;2355.20;;;;;;5077407;28;20028;-83
2022/10/27 08:15:41;;;;;;;45.00;28.88;;;410.40;2355.20;;;;;;5072675;28;20469;-79
2022/10/27 08:18:08;;;;;;;51.42;31.73;;;410.50;2355.20;;;;;;5081237;28;20033;-76
2022/10/27 08:20:38;;;;;;;52.28;31.85;;;410.50;2355.20;;;;;;5072766;28;20026;-79
2022/10/27 08:23:06;;;;;;;53.22;31.60;;;410.50;2355.20;;;;;;5080156;28;20024;-82
2022/10/27 08:25:33;;;;;;;54.30;31.30;;;435.20;2355.20;;;;;;5077182;28;20064;-81
2022/10/27 08:28:00;;;;;;;48.75;31.58;;;435.20;2355.20;;;;;;5085796;28;20413;-79
2022/10/27 08:30:28;;;;;;;52.53;33.97;;;435.30;2355.20;;;;;;5084389;28;20032;-78
2022/10/27 08:32:56;;;;;;;48.90;32.88;;;435.30;2355.20;;;;;;5087571;28;20491;-79
2022/10/27 08:35:22;;;;;;;49.75;31.50;;;435.50;2355.20;;;;;;5087182;28;20454;-87
2022/10/27 08:37:48;;;;;;;49.05;33.40;;;435.50;2355.20;;;;;;5088002;28;20024;-80
2022/10/27 08:40:14;;;;;;;46.10;31.23;;;435.60;2355.20;;;;;;5085610;28;20101;-80
2022/10/27 08:43:05;;;;;;;43.92;31.05;;;435.60;2355.20;;;;;;5080218;28;20028;-81
2022/10/27 08:45:46;;;;;;;50.42;30.95;;;435.70;2355.20;;;;;;5076979;28;20022;-81
2022/10/27 08:48:13;;;;;;;45.28;30.83;;;435.80;2355.20;;;;;;5076280;28;20032;-78
2022/10/27 08:50:43;;;;;;;46.70;31.38;;;435.80;2355.20;;;;;;5090955;28;20075;-89
2022/10/27 08:53:14;;;;;;;48.55;32.38;;;435.90;2355.20;;;;;;5083014;28;20044;-80
2022/10/27 08:55:52;;;;;;;50.78;33.60;;;435.90;2355.20;;;;;;5085633;28;20044;-80
2022/10/27 08:58:38;;;;;;;50.55;32.05;;;436.00;2355.20;;;;;;5091565;28;20024;-80
2022/10/27 09:01:21;;;;;;;50.80;33.20;;;436.00;2355.20;;;;;;5091326;28;20050;-82
2022/10/27 09:04:09;;;;;;;49.15;33.10;;;436.10;2355.20;;;;;;5091738;28;20115;-82
2022/10/27 09:07:06;;;;;;;54.65;34.55;;;460.80;2380.80;;;;;;5065227;28;20477;-87
2022/10/27 09:09:47;;;;;;;;;;;460.80;2380.80;;;;;;5077941;28;20082;-83
2022/10/27 09:12:38;;;;;;;47.20;32.75;;;460.90;2380.80;;;;;;5080682;28;19905;-83
2022/10/27 09:15:23;;;;;;;49.50;33.30;;;461.00;2380.80;;;;;;5053774;28;20390;-83
2022/10/27 09:18:12;;;;;;;49.90;34.78;;;461.10;2380.80;;;;;;5053497;28;20037;-89
2022/10/27 09:20:48;;;;;;;47.70;33.70;;;461.20;2380.80;;;;;;5057027;28;20506;-88
2022/10/27 09:23:19;;;;;;;54.05;33.97;;;461.30;2380.80;;;;;;5056909;28;20027;-79
2022/10/27 09:25:48;;;;;;;46.33;31.15;;;461.50;2380.80;;;;;;5073885;28;20562;-82
2022/10/27 09:28:23;;;;;;;47.58;32.10;;;461.50;2380.80;;;;;;5057091;28;20028;-82
2022/10/27 09:30:50;;;;;;;48.75;31.83;;;486.50;2380.80;;;;;;5057055;28;20029;-87
2022/10/27 09:33:20;;;;;;;41.92;30.83;;;486.70;2380.80;;;;;;5056893;28;20024;-82
2022/10/27 09:35:48;;;;;;;46.67;30.33;;;486.70;2380.80;;;;;;5056979;28;20036;-83
2022/10/27 09:38:18;;;;;;;40.50;29.65;;;486.90;2380.80;;;;;;5056412;28;20489;-82
2022/10/27 09:40:43;;;;;;;40.10;28.55;;;487.30;2380.80;;;;;;5056937;28;20079;-81
2022/10/27 09:43:10;;;;;;;36.70;27.77;;;512.20;2380.80;;;;;;5056414;28;20060;-83
2022/10/27 09:45:36;;;;;;;37.30;25.50;;;512.50;2380.80;;;;;;5056931;28;20131;-86
2022/10/27 09:48:09;;;;;;;33.83;23.45;;;512.90;2380.80;;;;;;5056880;28;20020;-82
2022/10/27 09:50:54;;;;;;;30.50;20.98;;;537.80;2406.40;;;;;;5042822;28;20020;-86
2022/10/27 09:53:41;;;;;;;25.58;20.77;;;538.00;2406.40;;;;;;5076119;28;20025;-82
2022/10/27 09:56:23;;;;;;;25.75;19.00;;;538.10;2406.40;;;;;;5094627;28;20098;-84
2022/10/27 09:59:03;;;;;;;23.25;16.40;;;538.00;2406.40;;;;;;5080473;28;20153;-83
2022/10/27 10:01:38;;;;;;;24.65;17.35;;;538.00;2406.40;;;;;;5094751;28;20028;-87
2022/10/27 10:04:15;;;;;;;24.23;17.48;;;538.20;2406.40;;;;;;5094650;28;20032;-86
2022/10/27 10:06:41;;;;;;;20.23;16.27;;;538.20;2406.40;;;;;;5093741;28;20474;-83
2022/10/27 10:09:22;;;;;;;19.65;14.73;;;538.50;2406.40;;;;;;5094029;28;20024;-82
2022/10/27 10:11:48;;;;;;;18.48;13.48;;;563.40;2432.00;;;;;;5093626;28;20362;-79
2022/10/27 10:14:24;;;;;;;21.73;13.05;;;563.60;2432.00;;;;;;5093428;28;20089;-85
2022/10/27 10:16:51;;;;;;;15.95;12.07;;;563.90;2432.00;;;;;;5093112;28;20131;-83
2022/10/27 10:19:18;;;;;;;14.93;10.93;;;564.10;2380.80;;;;;;5089184;28;20028;-79
2022/10/27 10:21:52;;;;;;;12.05;9.88;;;588.80;2278.40;;;;;;5085165;28;20107;-82
2022/10/27 10:24:22;;;;;;;11.85;8.07;;;588.90;2150.40;;;;;;5088772;28;20024;-82
2022/10/27 10:26:52;;;;;;;10.68;7.72;;;589.10;1971.20;;;;;;5079487;28;20058;-78
2022/10/27 10:29:27;;;;;;;12.57;6.63;;;589.40;1945.60;;;;;;5092454;28;20036;-78
2022/10/27 10:32:14;;;;;;;14.23;7.78;;;589.60;1843.20;;;;;;5093201;28;20031;-80
2022/10/27 10:34:44;;;;;;;7.20;4.78;;;;;;;;;;5080048;28;20079;-82
2022/10/27 10:37:29;;;;;;;10.45;5.40;;;614.40;1766.40;;;;;;5092715;28;20449;-78
2022/10/27 10:40:07;;;;;;;9.13;4.60;;;614.60;1715.20;;;;;;5091864;28;20593;-79
2022/10/27 10:42:33;;;;;;;7.43;3.83;;;614.80;1664.00;;;;;;5082599;28;20070;-81
2022/10/27 10:45:19;;;;;;;7.18;4.22;;;615.20;1638.40;;;;;;5092743;28;20067;-79
2022/10/27 10:47:55;;;;;;;5.45;3.90;;;615.30;1638.40;;;;;;5093111;28;20052;-79
2022/10/27 10:50:21;;;;;;;6.13;4.13;;;640.20;1638.40;;;;;;5092468;28;20110;-78
2022/10/27 10:52:52;;;;;;;8.60;3.78;;;615.20;1664.00;;;;;;5092207;28;20036;-79
2022/10/27 10:55:31;;;;;;;8.85;3.90;;;614.80;1689.60;;;;;;5093614;28;20020;-78
2022/10/27 10:57:58;;;;;;;8.48;3.83;;;614.40;1740.80;;;;;;5092778;28;20052;-83
2022/10/27 11:00:25;;;;;;;7.63;3.85;;;589.50;1792.00;;;;;;5092201;28;20023;-81
2022/10/27 11:03:15;;;;;;;8.90;3.60;;;589.30;1792.00;;;;;;5092749;28;20024;-78
2022/10/27 11:05:41;;;;;;;7.82;3.88;;;589.30;1843.20;;;;;;5093009;28;20023;-79
2022/10/27 11:08:38;;;;;;;12.20;4.43;;;589.30;1817.60;;;;;;5082274;28;20029;-82
2022/10/27 11:11:10;;;;;;;9.93;5.75;;;589.30;1843.20;;;;;;5079769;28;20115;-84
2022/10/27 11:13:54;;;;;;;8.80;5.38;;;589.10;1868.80;;;;;;5092891;28;20473;-82
2022/10/27 11:16:20;;;;;;;8.52;5.30;;;589.00;1868.80;;;;;;5080594;28;20078;-79
2022/10/27 11:18:54;;;;;;;9.65;5.30;;;588.90;1894.40;;;;;;5092549;28;20020;-79
2022/10/27 11:22:01;;;;;;;13.32;5.72;;;588.90;1894.40;;;;;;5092370;28;20086;-88
2022/10/27 11:24:55;;;;;;;8.73;4.38;;;589.00;1894.40;;;;;;4995312;28;20595;-80
2022/10/27 11:27:55;;;;;;;11.05;4.60;;;589.50;1817.60;;;;;;5007268;28;20077;-87
2022/10/27 11:30:23;;;;;;;11.45;4.00;;;;;;;;;;4977039;28;20046;-80
2022/10/27 11:32:52;;;;;;;8.45;4.68;;;;;;;;;;4992243;28;20049;-82
2022/10/27 11:35:26;;;;;;;12.50;5.30;;;615.00;1612.80;;;;;;4998028;28;20141;-86
2022/10/27 11:38:14;;;;;;;12.43;5.95;;;615.10;1638.40;;;;;;4994887;28;20025;-87
2022/10/27 11:41:08;;;;;;;10.05;4.82;;;615.30;1664.00;;;;;;4993888;28;20034;-80
2022/10/27 11:43:40;;;;;;;9.68;4.57;;;640.00;1612.80;;;;;;5011109;28;20052;-80
2022/10/27 11:46:12;;;;;;;9.90;4.53;;;640.00;1587.20;;;;;;5010920;28;20377;-83
2022/10/27 11:49:01;;;;;;;8.90;5.70;;;640.20;1561.60;;;;;;5011187;28;20041;-79
2022/10/27 11:51:30;;;;;;;12.45;5.25;;;640.20;1587.20;;;;;;5010877;28;20025;-81
2022/10/27 11:53:56;;;;;;;9.80;5.15;;;640.20;1612.80;;;;;;5004582;28;20042;-84
2022/10/27 11:56:39;;;;;;;9.70;5.57;;;640.20;1587.20;;;;;;5003180;28;20041;-89
2022/10/27 11:59:47;;;;;;;9.45;5.07;;;640.30;1612.80;;;;;;4994101;28;20030;-83
2022/10/27 12:02:54;;;;;;;10.35;5.57;;;640.40;1587.20;;;;;;5060706;28;20031;-80
2022/10/27 12:05:29;;;;;;;14.63;5.68;;;640.40;1536.00;;;;;;4994458;28;20668;-79
2022/10/27 12:08:13;;;;;;;7.03;4.70;;;640.40;1536.00;;;;;;5010470;28;20026;-80
2022/10/27 12:23:35;;;;;;;10.40;5.38;;;615.30;1536.00;;;;;;5117270;27;20375;-79
2022/10/27 12:26:24;;;;;;;8.73;5.28;;;640.00;1561.60;;;;;;5108435;28;20055;-84
2022/10/27 12:28:51;;;;;;;28.42;19.52;;;640.00;1536.00;;;;;;5108379;28;20055;-79
2022/10/27 12:31:24;;;;;;;23.40;10.75;;;640.00;1587.20;;;;;;5108637;28;20028;-79
2022/10/27 12:33:56;;;;;;;38.47;23.40;;;640.20;1561.60;;;;;;5094320;28;20058;-79